METAR Data
IDs: Format: Raw Decoded Include TAF

Data at: 0158 UTC 01 Mar 2021

UKKM 010130Z AUTO 01002MPS 340V060 9999 // ///005/// 00/M00 Q1023